createdAt,value
2018-12-24T00:00:32.898Z,99.90
2018-12-24T00:03:01.976Z,99.90
2018-12-24T00:05:31.063Z,99.90
2018-12-24T00:08:00.158Z,99.90
2018-12-24T00:10:29.227Z,99.90
2018-12-24T00:12:58.323Z,99.90
2018-12-24T00:15:27.396Z,99.90
2018-12-24T00:17:56.491Z,99.90
2018-12-24T00:20:25.565Z,99.90
2018-12-24T00:22:54.644Z,99.90
2018-12-24T00:25:23.723Z,99.90
2018-12-24T00:27:52.807Z,99.90
2018-12-24T00:30:21.901Z,99.90
2018-12-24T00:32:51.010Z,99.90
2018-12-24T00:35:20.094Z,99.90
2018-12-24T00:37:49.199Z,99.90
2018-12-24T00:40:18.271Z,99.90
2018-12-24T00:42:47.345Z,99.90
2018-12-24T00:45:16.414Z,99.90
2018-12-24T00:47:45.499Z,99.90
2018-12-24T00:50:14.563Z,99.90
2018-12-24T00:52:43.667Z,99.90
2018-12-24T00:55:12.728Z,99.90
2018-12-24T00:57:41.817Z,99.90
2018-12-24T01:00:10.894Z,99.90
2018-12-24T01:02:40.035Z,99.90
2018-12-24T01:05:09.097Z,99.90
2018-12-24T01:07:38.173Z,99.90
2018-12-24T01:10:07.303Z,99.90
2018-12-24T01:12:36.416Z,99.90
2018-12-24T01:15:05.652Z,99.90
2018-12-24T01:17:34.711Z,99.90
2018-12-24T01:20:04.654Z,99.90
2018-12-24T01:22:33.715Z,99.90
2018-12-24T01:25:02.811Z,99.90
2018-12-24T01:27:31.881Z,99.90
2018-12-24T01:30:00.962Z,99.90
2018-12-24T01:32:30.030Z,99.90
2018-12-24T01:34:59.110Z,99.90
2018-12-24T01:37:28.175Z,99.90
2018-12-24T01:39:57.236Z,99.90
2018-12-24T01:42:33.381Z,99.90
2018-12-24T01:44:57.075Z,99.90
2018-12-24T01:47:26.151Z,99.90
2018-12-24T01:49:55.355Z,99.90
2018-12-24T01:52:24.417Z,99.90
2018-12-24T01:54:53.486Z,99.90
2018-12-24T01:57:22.542Z,99.90
2018-12-24T01:59:51.623Z,99.90
2018-12-24T02:02:20.686Z,99.90
2018-12-24T02:04:49.755Z,99.90
2018-12-24T02:07:18.809Z,99.90
2018-12-24T02:09:47.893Z,99.90
2018-12-24T02:12:16.971Z,99.90
2018-12-24T02:14:46.047Z,99.90
2018-12-24T02:17:15.107Z,99.90
2018-12-24T02:19:44.184Z,99.90
2018-12-24T02:22:13.252Z,99.90
2018-12-24T02:24:42.330Z,99.90
2018-12-24T02:27:11.395Z,99.90
2018-12-24T02:29:40.521Z,99.90
2018-12-24T02:32:09.586Z,99.90
2018-12-24T02:34:38.656Z,99.90
2018-12-24T02:37:07.721Z,99.90
2018-12-24T02:39:36.881Z,99.90
2018-12-24T02:42:05.955Z,99.90
2018-12-24T02:44:35.047Z,99.90
2018-12-24T02:47:04.108Z,99.90
2018-12-24T02:49:33.201Z,99.90
2018-12-24T02:52:02.259Z,99.90
2018-12-24T02:54:31.335Z,99.90
2018-12-24T02:57:00.400Z,99.90
2018-12-24T02:59:29.484Z,99.90
2018-12-24T03:01:58.543Z,99.90
2018-12-24T03:04:27.638Z,99.90
2018-12-24T03:06:56.690Z,99.90
2018-12-24T03:09:25.752Z,99.90
2018-12-24T03:11:54.834Z,99.90
2018-12-24T03:14:23.909Z,99.90
2018-12-24T03:16:53.041Z,99.90
2018-12-24T03:19:22.111Z,99.90
2018-12-24T03:21:51.171Z,99.90
2018-12-24T03:24:20.308Z,99.90
2018-12-24T03:26:49.404Z,99.90
2018-12-24T03:29:18.471Z,99.90
2018-12-24T03:31:47.548Z,99.90
2018-12-24T03:34:16.598Z,99.90
2018-12-24T03:36:45.681Z,99.90
2018-12-24T03:39:14.736Z,99.90
2018-12-24T03:41:43.891Z,99.90
2018-12-24T03:44:12.952Z,99.90
2018-12-24T03:46:42.022Z,99.90
2018-12-24T03:49:11.084Z,99.90
2018-12-24T03:51:40.159Z,99.90
2018-12-24T03:54:09.219Z,99.90
2018-12-24T03:56:38.286Z,99.90
2018-12-24T03:59:07.351Z,99.90
2018-12-24T04:01:36.427Z,99.90
2018-12-24T04:04:05.563Z,99.90
2018-12-24T04:06:34.724Z,99.90
2018-12-24T04:09:05.445Z,99.90
2018-12-24T04:11:34.608Z,99.90
2018-12-24T04:14:03.673Z,99.90
2018-12-24T04:16:32.744Z,99.90
2018-12-24T04:19:01.809Z,99.90
2018-12-24T04:21:30.880Z,99.90
2018-12-24T04:23:59.965Z,99.90
2018-12-24T04:26:29.037Z,99.90
2018-12-24T04:28:58.102Z,99.90
2018-12-24T04:31:27.191Z,99.90
2018-12-24T04:33:56.263Z,99.90
2018-12-24T04:36:25.347Z,99.90
2018-12-24T04:38:54.407Z,99.90
2018-12-24T04:41:23.483Z,99.90
2018-12-24T04:43:52.543Z,99.90
2018-12-24T04:46:21.618Z,99.90
2018-12-24T04:48:50.678Z,99.90
2018-12-24T04:51:19.759Z,99.90
2018-12-24T04:53:48.824Z,99.90
2018-12-24T04:56:17.895Z,99.90
2018-12-24T04:58:46.966Z,99.90
2018-12-24T05:01:16.038Z,99.90
2018-12-24T05:03:45.103Z,99.90
2018-12-24T05:06:14.188Z,99.90
2018-12-24T05:08:43.253Z,99.90
2018-12-24T05:11:12.319Z,99.90
2018-12-24T05:13:41.386Z,99.90
2018-12-24T05:16:10.463Z,99.90
2018-12-24T05:18:39.531Z,99.90
2018-12-24T05:21:08.608Z,99.90
2018-12-24T05:23:37.662Z,99.90
2018-12-24T05:26:06.744Z,99.90
2018-12-24T05:28:35.796Z,99.90
2018-12-24T05:31:04.890Z,99.90
2018-12-24T05:33:33.950Z,99.90
2018-12-24T05:36:03.007Z,99.90
2018-12-24T05:38:32.093Z,99.90
2018-12-24T05:41:01.150Z,99.90
2018-12-24T05:43:30.231Z,99.90
2018-12-24T05:45:59.295Z,99.90
2018-12-24T05:48:28.385Z,99.90
2018-12-24T05:50:57.438Z,99.90
2018-12-24T05:53:26.513Z,99.90
2018-12-24T05:55:55.570Z,99.90
2018-12-24T05:58:24.647Z,99.90
2018-12-24T06:00:53.769Z,99.90
2018-12-24T06:03:22.839Z,99.90
2018-12-24T06:05:51.976Z,99.90
2018-12-24T06:08:21.043Z,99.90
2018-12-24T06:10:50.126Z,99.90
2018-12-24T06:13:19.199Z,99.90
2018-12-24T06:15:48.271Z,99.90
2018-12-24T06:18:17.337Z,99.90
2018-12-24T06:20:46.395Z,99.90
2018-12-24T06:23:15.485Z,99.90
2018-12-24T06:25:44.649Z,99.90
2018-12-24T06:28:13.723Z,99.90
2018-12-24T06:30:42.782Z,99.90
2018-12-24T06:33:11.855Z,99.90
2018-12-24T06:35:40.929Z,99.90
2018-12-24T06:38:09.990Z,99.90
2018-12-24T06:40:39.072Z,99.90
2018-12-24T06:43:08.138Z,99.90
2018-12-24T06:45:37.205Z,99.90
2018-12-24T06:48:06.275Z,99.90
2018-12-24T06:50:35.339Z,99.90
2018-12-24T06:53:04.514Z,99.90
2018-12-24T06:55:33.567Z,99.90
2018-12-24T06:58:02.646Z,99.90
2018-12-24T07:00:31.716Z,99.90
2018-12-24T07:03:00.795Z,99.90
2018-12-24T07:05:29.933Z,99.90
2018-12-24T07:07:59.007Z,99.90
2018-12-24T07:10:28.062Z,99.90
2018-12-24T07:12:57.139Z,99.90
2018-12-24T07:15:26.263Z,99.90
2018-12-24T07:17:55.347Z,99.90
2018-12-24T07:20:24.491Z,99.90
2018-12-24T07:22:53.574Z,99.90
2018-12-24T07:25:22.642Z,99.90
2018-12-24T07:27:51.720Z,99.90
2018-12-24T07:30:20.792Z,99.90
2018-12-24T07:32:49.851Z,99.90
2018-12-24T07:35:18.918Z,99.90
2018-12-24T07:37:47.995Z,99.90
2018-12-24T07:40:17.051Z,99.90
2018-12-24T07:42:46.212Z,99.90
2018-12-24T07:45:15.269Z,99.90
2018-12-24T07:47:44.354Z,99.90
2018-12-24T07:50:13.414Z,99.90
2018-12-24T07:52:42.491Z,99.90
2018-12-24T07:55:11.565Z,99.90
2018-12-24T07:57:40.654Z,99.90
2018-12-24T08:00:09.714Z,99.90
2018-12-24T08:02:38.787Z,99.90
2018-12-24T08:05:07.858Z,99.90
2018-12-24T08:07:36.948Z,99.90
2018-12-24T08:10:06.037Z,99.90
2018-12-24T08:12:35.104Z,99.90
2018-12-24T08:15:04.544Z,99.90
2018-12-24T08:17:33.633Z,99.90
2018-12-24T08:20:02.724Z,99.90
2018-12-24T08:22:31.784Z,99.90
2018-12-24T08:25:20.198Z,99.90
2018-12-24T08:27:49.278Z,99.90
2018-12-24T08:30:18.348Z,99.90
2018-12-24T08:32:47.427Z,99.90
2018-12-24T08:35:16.490Z,99.90
2018-12-24T08:37:45.582Z,99.90
2018-12-24T08:40:14.652Z,99.90
2018-12-24T08:42:43.747Z,99.90
2018-12-24T08:45:12.836Z,99.90
2018-12-24T08:47:41.904Z,99.90
2018-12-24T08:50:10.966Z,99.90
2018-12-24T08:52:40.051Z,99.90
2018-12-24T08:55:09.118Z,99.90
2018-12-24T08:57:38.205Z,99.90
2018-12-24T09:00:07.510Z,99.90
2018-12-24T09:02:36.575Z,99.90
2018-12-24T09:05:05.715Z,99.90
2018-12-24T09:07:34.809Z,99.90
2018-12-24T09:10:03.931Z,99.90
2018-12-24T09:12:33.000Z,99.90
2018-12-24T09:15:02.081Z,99.90
2018-12-24T09:17:31.138Z,99.90
2018-12-24T09:20:00.239Z,99.90
2018-12-24T09:22:29.312Z,99.90
2018-12-24T09:24:58.411Z,99.90
2018-12-24T09:27:27.459Z,99.90
2018-12-24T09:29:56.535Z,99.90
2018-12-24T09:32:25.681Z,99.90
2018-12-24T09:34:54.807Z,99.90
2018-12-24T09:37:23.859Z,99.90
2018-12-24T09:39:52.947Z,99.90
2018-12-24T09:42:22.004Z,99.90
2018-12-24T09:44:58.770Z,99.90
2018-12-24T09:47:21.839Z,99.90
2018-12-24T09:49:50.928Z,99.90
2018-12-24T09:52:19.999Z,99.90
2018-12-24T09:54:49.074Z,99.90
2018-12-24T09:57:18.138Z,99.90
2018-12-24T09:59:47.214Z,99.90
2018-12-24T10:02:16.470Z,99.90
2018-12-24T10:04:45.794Z,99.90
2018-12-24T10:07:18.895Z,99.90
2018-12-24T10:09:47.983Z,99.90
2018-12-24T10:12:17.047Z,99.90
2018-12-24T10:14:46.128Z,99.90
2018-12-24T10:17:15.364Z,99.90
2018-12-24T10:19:44.465Z,99.90
2018-12-24T10:22:13.630Z,99.90
2018-12-24T10:24:42.676Z,99.90
2018-12-24T10:27:11.739Z,99.90
2018-12-24T10:29:40.811Z,99.90
2018-12-24T10:32:09.883Z,99.90
2018-12-24T10:34:38.958Z,99.90
2018-12-24T10:37:08.035Z,99.40
2018-12-24T10:39:37.142Z,99.20
2018-12-24T10:42:06.240Z,99.00
2018-12-24T10:44:35.321Z,97.90
2018-12-24T10:47:04.427Z,97.00
2018-12-24T10:49:33.519Z,96.60
2018-12-24T10:52:02.585Z,95.90
2018-12-24T10:54:31.691Z,93.80
2018-12-24T10:57:00.770Z,95.00
2018-12-24T10:59:29.850Z,96.60
2018-12-24T11:01:58.930Z,94.60
2018-12-24T11:04:27.992Z,92.90
2018-12-24T11:06:57.097Z,93.10
2018-12-24T11:09:26.178Z,94.90
2018-12-24T11:11:55.318Z,94.00
2018-12-24T11:14:24.415Z,93.80
2018-12-24T11:16:53.656Z,94.40
2018-12-24T11:19:22.747Z,95.10
2018-12-24T11:21:51.803Z,94.60
2018-12-24T11:24:20.938Z,93.10
2018-12-24T11:26:50.015Z,95.00
2018-12-24T11:29:19.179Z,94.40
2018-12-24T11:31:48.274Z,93.80
2018-12-24T11:34:17.421Z,95.20
2018-12-24T11:36:46.483Z,93.90
2018-12-24T11:39:15.603Z,93.50
2018-12-24T11:41:44.703Z,92.80
2018-12-24T11:44:13.795Z,91.60
2018-12-24T11:46:42.877Z,93.30
2018-12-24T11:49:11.983Z,92.60
2018-12-24T11:51:41.237Z,93.40
2018-12-24T11:54:10.279Z,93.90
2018-12-24T11:56:39.373Z,94.50
2018-12-24T11:59:08.455Z,93.60
2018-12-24T12:01:37.554Z,93.10
2018-12-24T12:04:06.682Z,92.40
2018-12-24T12:06:35.765Z,92.80
2018-12-24T12:09:06.754Z,93.80
2018-12-24T12:11:35.826Z,92.10
2018-12-24T12:14:04.906Z,93.00
2018-12-24T12:16:34.007Z,93.90
2018-12-24T12:19:03.095Z,92.20
2018-12-24T12:21:32.190Z,92.20
2018-12-24T12:24:01.234Z,90.40
2018-12-24T12:26:30.469Z,90.60
2018-12-24T12:28:59.653Z,91.50
2018-12-24T12:31:28.730Z,93.70
2018-12-24T12:33:57.790Z,91.40
2018-12-24T12:36:26.893Z,93.10
2018-12-24T12:38:56.023Z,91.40
2018-12-24T12:41:25.127Z,92.70
2018-12-24T12:43:54.186Z,90.80
2018-12-24T12:46:23.277Z,90.10
2018-12-24T12:48:52.359Z,92.10
2018-12-24T12:51:21.460Z,92.00
2018-12-24T12:53:50.543Z,91.80
2018-12-24T12:56:19.632Z,92.10
2018-12-24T12:58:48.698Z,91.40
2018-12-24T13:01:17.764Z,92.90
2018-12-24T13:03:46.823Z,92.90
2018-12-24T13:06:15.908Z,92.00
2018-12-24T13:08:44.970Z,93.00
2018-12-24T13:11:14.034Z,92.60
2018-12-24T13:13:43.119Z,91.60
2018-12-24T13:16:12.195Z,88.90
2018-12-24T13:18:41.268Z,89.20
2018-12-24T13:21:10.339Z,87.70
2018-12-24T13:23:39.432Z,90.70
2018-12-24T13:26:08.558Z,88.30
2018-12-24T13:28:37.659Z,86.20
2018-12-24T13:31:06.714Z,89.30
2018-12-24T13:33:35.794Z,86.00
2018-12-24T13:36:04.858Z,90.10
2018-12-24T13:38:33.952Z,87.50
2018-12-24T13:41:03.040Z,88.60
2018-12-24T13:43:32.140Z,89.20
2018-12-24T13:46:08.015Z,83.40
2018-12-24T13:48:32.016Z,84.80
2018-12-24T13:51:01.075Z,85.50
2018-12-24T13:53:30.172Z,85.10
2018-12-24T13:55:59.247Z,83.40
2018-12-24T13:58:28.331Z,84.20
2018-12-24T14:02:02.972Z,86.20
2018-12-24T14:04:31.935Z,82.80
2018-12-24T14:07:00.899Z,83.20
2018-12-24T14:09:29.886Z,82.00
2018-12-24T14:11:58.857Z,78.90
2018-12-24T14:14:27.832Z,78.60
2018-12-24T14:16:56.801Z,81.90
2018-12-24T14:19:25.804Z,84.30
2018-12-24T14:21:54.775Z,85.90
2018-12-24T14:24:23.750Z,88.90
2018-12-24T14:26:52.711Z,84.30
2018-12-24T14:29:21.696Z,84.40
2018-12-24T14:31:50.662Z,83.10
2018-12-24T14:34:19.655Z,87.70
2018-12-24T14:36:48.617Z,90.10
2018-12-24T14:39:17.599Z,89.30
2018-12-24T14:41:46.559Z,87.60
2018-12-24T14:44:15.539Z,89.60
2018-12-24T14:46:44.625Z,90.60
2018-12-24T14:49:13.608Z,84.40
2018-12-24T14:51:42.593Z,90.20
2018-12-24T14:54:11.554Z,86.50
2018-12-24T14:56:40.515Z,90.20
2018-12-24T14:59:09.498Z,88.90
2018-12-24T15:01:38.476Z,90.10
2018-12-24T15:04:07.519Z,89.00
2018-12-24T15:06:36.503Z,89.50
2018-12-24T15:09:06.920Z,90.30
2018-12-24T15:11:35.891Z,90.70
2018-12-24T15:14:04.943Z,90.90
2018-12-24T15:16:35.869Z,91.00
2018-12-24T15:19:04.647Z,87.60
2018-12-24T15:21:33.604Z,89.80
2018-12-24T15:24:02.590Z,90.90
2018-12-24T15:26:31.547Z,91.30
2018-12-24T15:29:01.432Z,90.70
2018-12-24T15:31:30.598Z,90.20
2018-12-24T15:33:59.628Z,91.60
2018-12-24T15:36:28.559Z,91.20
2018-12-24T15:38:57.587Z,91.00
2018-12-24T15:41:26.582Z,92.20
2018-12-24T15:43:55.555Z,91.50
2018-12-24T15:46:24.507Z,89.20
2018-12-24T15:48:53.485Z,88.30
2018-12-24T15:51:22.455Z,90.10
2018-12-24T15:53:51.442Z,89.30
2018-12-24T15:56:20.425Z,91.10
2018-12-24T15:58:49.403Z,90.90
2018-12-24T16:01:18.406Z,90.00
2018-12-24T16:03:47.400Z,91.30
2018-12-24T16:06:16.349Z,90.90
2018-12-24T16:08:45.341Z,90.00
2018-12-24T16:11:14.301Z,90.40
2018-12-24T16:13:43.392Z,89.30
2018-12-24T16:16:12.316Z,88.90
2018-12-24T16:18:41.304Z,89.60
2018-12-24T16:21:10.265Z,90.30
2018-12-24T16:23:39.252Z,91.80
2018-12-24T16:26:08.234Z,91.20
2018-12-24T16:28:37.218Z,90.70
2018-12-24T16:31:06.178Z,91.40
2018-12-24T16:33:35.152Z,90.10
2018-12-24T16:36:04.135Z,91.80
2018-12-24T16:38:33.109Z,92.10
2018-12-24T16:41:02.060Z,90.50
2018-12-24T16:43:31.019Z,92.30
2018-12-24T16:46:00.021Z,92.40
2018-12-24T16:48:28.992Z,92.90
2018-12-24T16:50:57.955Z,91.80
2018-12-24T16:53:26.910Z,91.30
2018-12-24T16:55:55.906Z,93.00
2018-12-24T16:58:24.874Z,93.10
2018-12-24T17:00:53.850Z,91.30
2018-12-24T17:03:22.811Z,93.00
2018-12-24T17:05:51.790Z,92.60
2018-12-24T17:08:20.768Z,93.40
2018-12-24T17:10:49.741Z,93.50
2018-12-24T17:13:18.707Z,93.10
2018-12-24T17:15:47.833Z,93.40
2018-12-24T17:18:16.807Z,93.10
2018-12-24T17:20:45.784Z,93.70
2018-12-24T17:23:14.745Z,92.90
2018-12-24T17:25:43.735Z,93.20
2018-12-24T17:28:12.692Z,91.60
2018-12-24T17:30:41.675Z,92.40
2018-12-24T17:33:10.668Z,91.80
2018-12-24T17:35:39.638Z,92.50
2018-12-24T17:38:08.619Z,92.50
2018-12-24T17:40:37.614Z,93.00
2018-12-24T17:43:06.555Z,93.50
2018-12-24T17:45:35.530Z,92.70
2018-12-24T17:48:04.558Z,93.00
2018-12-24T17:50:33.635Z,92.90
2018-12-24T17:53:02.590Z,92.90
2018-12-24T17:55:31.570Z,92.80
2018-12-24T17:58:00.533Z,93.10
2018-12-24T18:00:29.509Z,93.50
2018-12-24T18:02:58.471Z,93.50
2018-12-24T18:05:27.450Z,93.40
2018-12-24T18:07:56.415Z,93.10
2018-12-24T18:10:25.399Z,93.60
2018-12-24T18:12:54.355Z,93.90
2018-12-24T18:15:23.335Z,93.60
2018-12-24T18:17:52.294Z,94.30
2018-12-24T18:20:21.270Z,93.80
2018-12-24T18:22:50.233Z,93.60
2018-12-24T18:25:19.216Z,93.90
2018-12-24T18:27:48.186Z,93.90
2018-12-24T18:30:17.176Z,93.90
2018-12-24T18:32:46.158Z,94.20
2018-12-24T18:35:15.142Z,94.30
2018-12-24T18:37:44.142Z,93.50
2018-12-24T18:40:13.131Z,94.00
2018-12-24T18:42:42.099Z,94.60
2018-12-24T18:45:11.076Z,94.60
2018-12-24T18:47:40.037Z,94.50
2018-12-24T18:50:09.030Z,94.30
2018-12-24T18:52:38.061Z,93.90
2018-12-24T18:55:07.084Z,93.70
2018-12-24T18:57:36.068Z,94.00
2018-12-24T19:00:08.473Z,94.50
2018-12-24T19:02:37.430Z,92.90
2018-12-24T19:05:08.341Z,93.40
2018-12-24T19:07:37.386Z,93.60
2018-12-24T19:10:07.959Z,93.40
2018-12-24T19:12:36.942Z,93.10
2018-12-24T19:15:06.743Z,94.10
2018-12-24T19:17:41.465Z,93.80
2018-12-24T19:20:08.231Z,94.10
2018-12-24T19:22:37.215Z,94.10
2018-12-24T19:25:06.240Z,94.20
2018-12-24T19:27:35.210Z,93.00
2018-12-24T19:30:05.415Z,94.10
2018-12-24T19:32:34.379Z,93.70
2018-12-24T19:35:03.415Z,93.50
2018-12-24T19:37:32.410Z,93.60
2018-12-24T19:40:01.396Z,93.30
2018-12-24T19:42:30.369Z,93.90
2018-12-24T19:44:59.331Z,93.20
2018-12-24T19:47:28.306Z,92.80
2018-12-24T19:49:57.269Z,92.30
2018-12-24T19:52:26.258Z,92.40
2018-12-24T19:54:55.221Z,92.50
2018-12-24T19:57:24.191Z,92.60
2018-12-24T19:59:53.152Z,92.90
2018-12-24T20:02:22.133Z,92.30
2018-12-24T20:04:51.094Z,92.90
2018-12-24T20:07:20.084Z,92.70
2018-12-24T20:09:49.042Z,93.00
2018-12-24T20:12:18.048Z,91.90
2018-12-24T20:14:47.010Z,92.50
2018-12-24T20:17:15.999Z,93.20
2018-12-24T20:19:44.958Z,92.30
2018-12-24T20:22:14.072Z,91.90
2018-12-24T20:24:43.042Z,92.60
2018-12-24T20:27:12.012Z,92.80
2018-12-24T20:29:40.975Z,93.20
2018-12-24T20:32:09.965Z,93.10
2018-12-24T20:34:38.922Z,93.30
2018-12-24T20:37:09.516Z,92.80
2018-12-24T20:39:38.736Z,91.90
2018-12-24T20:42:07.707Z,92.20
2018-12-24T20:44:36.654Z,92.80
2018-12-24T20:47:05.636Z,93.30
2018-12-24T20:49:34.598Z,92.30
2018-12-24T20:52:03.586Z,93.50
2018-12-24T20:54:32.615Z,93.30
2018-12-24T20:57:01.579Z,93.10
2018-12-24T20:59:30.621Z,93.10
2018-12-24T21:01:59.622Z,93.00
2018-12-24T21:04:28.600Z,92.80
2018-12-24T21:06:57.592Z,92.70
2018-12-24T21:09:26.555Z,92.50
2018-12-24T21:11:55.527Z,92.80
2018-12-24T21:14:24.494Z,92.60
2018-12-24T21:16:53.467Z,92.40
2018-12-24T21:19:22.537Z,93.30
2018-12-24T21:21:51.491Z,93.50
2018-12-24T21:24:20.980Z,93.30
2018-12-24T21:26:49.948Z,93.70
2018-12-24T21:29:18.907Z,93.20
2018-12-24T21:31:47.879Z,93.50
2018-12-24T21:34:16.848Z,92.70
2018-12-24T21:36:45.818Z,94.00
2018-12-24T21:39:14.782Z,93.60
2018-12-24T21:41:43.774Z,93.80
2018-12-24T21:44:12.742Z,93.90
2018-12-24T21:46:41.702Z,93.80
2018-12-24T21:49:10.687Z,93.90
2018-12-24T21:51:39.674Z,93.90
2018-12-24T21:54:08.666Z,94.40
2018-12-24T21:56:37.627Z,94.30
2018-12-24T21:59:06.615Z,94.50
2018-12-24T22:01:35.565Z,94.10
2018-12-24T22:04:04.543Z,94.80
2018-12-24T22:06:33.523Z,94.10
2018-12-24T22:09:02.781Z,95.00
2018-12-24T22:11:31.730Z,95.20
2018-12-24T22:14:00.699Z,94.70
2018-12-24T22:16:29.667Z,94.90
2018-12-24T22:18:58.650Z,94.90
2018-12-24T22:21:27.622Z,95.10
2018-12-24T22:23:56.619Z,94.80
2018-12-24T22:26:25.583Z,95.30
2018-12-24T22:28:54.575Z,95.30
2018-12-24T22:31:23.553Z,95.10
2018-12-24T22:33:52.539Z,95.00
2018-12-24T22:36:21.506Z,94.40
2018-12-24T22:38:50.480Z,95.20
2018-12-24T22:41:19.462Z,95.30
2018-12-24T22:43:48.442Z,95.30
2018-12-24T22:46:17.407Z,95.00
2018-12-24T22:48:46.412Z,95.00
2018-12-24T22:51:15.414Z,94.70
2018-12-24T22:53:44.411Z,94.70
2018-12-24T22:56:13.359Z,94.40
2018-12-24T22:58:42.342Z,94.40
2018-12-24T23:01:11.312Z,94.50
2018-12-24T23:03:40.303Z,94.70
2018-12-24T23:06:09.258Z,94.70
2018-12-24T23:08:38.246Z,95.00
2018-12-24T23:11:07.232Z,95.00
2018-12-24T23:13:36.222Z,95.40
2018-12-24T23:16:05.200Z,95.40
2018-12-24T23:18:34.179Z,95.90
2018-12-24T23:21:03.179Z,95.90
2018-12-24T23:23:32.166Z,95.90
2018-12-24T23:26:01.145Z,96.00
2018-12-24T23:28:30.136Z,96.00
2018-12-24T23:30:59.095Z,95.70
2018-12-24T23:33:28.081Z,96.00
2018-12-24T23:35:57.038Z,95.90
2018-12-24T23:38:26.043Z,95.90
2018-12-24T23:40:55.031Z,95.40
2018-12-24T23:43:24.011Z,95.70
2018-12-24T23:45:52.974Z,95.00
2018-12-24T23:48:21.959Z,95.80
2018-12-24T23:50:50.922Z,95.80
2018-12-24T23:53:19.913Z,94.40
2018-12-24T23:55:48.898Z,95.40
2018-12-24T23:58:17.851Z,95.10
